createdAt,value
2022-12-24T00:01:09.898Z,7.22
2022-12-24T00:06:22.436Z,7.28
2022-12-24T00:11:24.964Z,6.90
2022-12-24T00:16:27.827Z,8.80
2022-12-24T00:21:30.435Z,9.43
2022-12-24T00:26:34.047Z,9.13
2022-12-24T00:31:36.581Z,9.32
2022-12-24T00:36:39.133Z,10.35
2022-12-24T00:41:41.849Z,10.63
2022-12-24T00:46:44.523Z,11.60
2022-12-24T00:51:47.247Z,13.35
2022-12-24T00:56:50.001Z,13.65
2022-12-24T01:01:52.768Z,13.30
2022-12-24T01:06:56.288Z,13.32
2022-12-24T01:11:58.819Z,13.82
2022-12-24T01:17:01.432Z,13.95
2022-12-24T01:22:04.081Z,15.77
2022-12-24T01:27:06.730Z,15.40
2022-12-24T01:32:09.314Z,15.52
2022-12-24T01:37:11.869Z,15.07
2022-12-24T01:42:41.478Z,15.02
2022-12-24T01:47:44.355Z,15.60
2022-12-24T01:52:46.938Z,15.88
2022-12-24T01:57:56.729Z,15.77
2022-12-24T02:02:59.973Z,14.60
2022-12-24T02:08:04.789Z,14.32
2022-12-24T02:13:08.185Z,13.35
2022-12-24T02:19:03.201Z,14.35
2022-12-24T02:24:23.320Z,12.63
2022-12-24T02:29:47.291Z,13.52
2022-12-24T02:34:58.352Z,13.00
2022-12-24T02:40:15.952Z,13.50
2022-12-24T02:45:23.900Z,13.85
2022-12-24T02:50:27.393Z,14.57
2022-12-24T02:55:29.918Z,14.02
2022-12-24T03:01:17.391Z,14.55
2022-12-24T03:06:44.518Z,14.52
2022-12-24T03:11:58.427Z,15.48
2022-12-24T03:17:03.677Z,16.42
2022-12-24T03:22:10.046Z,15.65
2022-12-24T03:27:14.422Z,16.77
2022-12-24T03:32:25.079Z,15.73
2022-12-24T03:37:27.823Z,16.60
2022-12-24T03:42:30.367Z,16.95
2022-12-24T03:47:33.096Z,16.80
2022-12-24T03:52:35.667Z,15.85
2022-12-24T03:57:38.298Z,15.68
2022-12-24T04:02:41.211Z,16.77
2022-12-24T04:07:44.828Z,17.10
2022-12-24T04:12:47.409Z,15.30
2022-12-24T04:17:49.946Z,15.93
2022-12-24T04:22:53.482Z,16.23
2022-12-24T04:27:56.019Z,15.05
2022-12-24T04:32:58.661Z,15.65
2022-12-24T04:38:01.211Z,15.65
2022-12-24T04:43:03.878Z,15.73
2022-12-24T04:48:06.465Z,16.42
2022-12-24T04:53:09.061Z,16.83
2022-12-24T04:58:12.106Z,15.02
2022-12-24T05:03:14.772Z,16.77
2022-12-24T05:08:17.329Z,17.20
2022-12-24T05:13:19.893Z,17.75
2022-12-24T05:18:23.216Z,17.05
2022-12-24T05:23:44.992Z,17.75
2022-12-24T05:28:48.337Z,16.95
2022-12-24T05:33:51.591Z,17.70
2022-12-24T05:38:54.811Z,17.05
2022-12-24T05:43:57.720Z,18.88
2022-12-24T05:49:00.289Z,16.52
2022-12-24T05:54:02.973Z,17.50
2022-12-24T05:59:05.558Z,17.05
2022-12-24T06:04:08.163Z,16.55
2022-12-24T06:09:11.087Z,16.67
2022-12-24T06:14:13.678Z,15.40
2022-12-24T06:19:16.199Z,15.10
2022-12-24T06:24:19.101Z,14.85
2022-12-24T06:29:21.652Z,14.43
2022-12-24T06:34:24.370Z,13.45
2022-12-24T06:39:27.014Z,13.27
2022-12-24T06:44:32.475Z,12.90
2022-12-24T06:49:35.214Z,12.88
2022-12-24T06:54:37.911Z,12.13
2022-12-24T06:59:40.527Z,12.18
2022-12-24T07:04:45.472Z,13.05
2022-12-24T07:09:48.164Z,12.55
2022-12-24T07:14:50.801Z,12.15
2022-12-24T07:19:53.515Z,14.27
2022-12-24T07:24:56.237Z,13.32
2022-12-24T07:29:58.925Z,13.20
2022-12-24T07:35:04.960Z,13.50
2022-12-24T07:40:09.861Z,12.40
2022-12-24T07:45:12.837Z,12.15
2022-12-24T07:50:15.592Z,12.07
2022-12-24T07:55:18.341Z,13.07
2022-12-24T08:00:21.174Z,12.18
2022-12-24T08:05:23.792Z,11.38
2022-12-24T08:10:26.462Z,11.23
2022-12-24T08:15:29.043Z,10.48
2022-12-24T08:20:31.670Z,10.40
2022-12-24T08:25:35.052Z,9.98
2022-12-24T08:30:37.705Z,8.70
2022-12-24T08:35:40.430Z,8.98
2022-12-24T08:40:44.173Z,8.70
2022-12-24T08:45:49.299Z,9.35
2022-12-24T08:50:51.879Z,9.05
2022-12-24T08:56:02.452Z,8.82
2022-12-24T09:01:14.393Z,8.38
2022-12-24T09:06:17.249Z,7.30
2022-12-24T09:11:20.690Z,7.28
2022-12-24T09:16:23.555Z,6.60
2022-12-24T09:21:26.689Z,7.57
2022-12-24T09:26:31.681Z,7.72
2022-12-24T09:31:34.388Z,7.40
2022-12-24T09:36:37.057Z,6.93
2022-12-24T09:42:04.027Z,7.13
2022-12-24T09:47:21.887Z,7.07
2022-12-24T09:52:35.150Z,7.20
2022-12-24T09:57:42.050Z,7.25
2022-12-24T10:02:44.854Z,6.57
2022-12-24T10:08:07.315Z,6.47
2022-12-24T10:13:35.815Z,6.57
2022-12-24T10:19:05.656Z,6.00
2022-12-24T10:24:14.011Z,6.55
2022-12-24T10:29:36.724Z,6.00
2022-12-24T10:34:44.713Z,6.55
2022-12-24T10:39:47.384Z,6.03
2022-12-24T10:44:57.479Z,5.47
2022-12-24T10:50:14.019Z,5.53
2022-12-24T10:55:19.469Z,5.30
2022-12-24T11:00:30.004Z,5.28
2022-12-24T11:05:36.724Z,5.10
2022-12-24T11:10:43.861Z,4.97
2022-12-24T11:15:47.148Z,5.53
2022-12-24T11:20:52.620Z,5.57
2022-12-24T11:25:57.250Z,5.13
2022-12-24T11:31:18.096Z,5.13
2022-12-24T11:36:23.842Z,4.75
2022-12-24T11:41:27.096Z,5.22
2022-12-24T11:46:38.908Z,5.38
2022-12-24T11:52:05.006Z,5.75
2022-12-24T11:57:11.771Z,5.90
2022-12-24T12:02:17.374Z,6.60
2022-12-24T12:07:28.989Z,6.07
2022-12-24T12:12:41.109Z,6.22
2022-12-24T12:17:56.979Z,5.60
2022-12-24T12:23:33.157Z,5.75
2022-12-24T12:28:56.460Z,5.30
2022-12-24T12:34:20.488Z,4.75
2022-12-24T12:39:24.039Z,5.55
2022-12-24T12:44:46.074Z,3.92
2022-12-24T12:55:31.078Z,4.47
2022-12-24T13:00:38.718Z,4.87
2022-12-24T13:06:09.655Z,4.38
2022-12-24T13:11:22.818Z,4.60
2022-12-24T13:17:06.670Z,4.75
2022-12-24T13:22:16.575Z,4.43
2022-12-24T13:27:25.100Z,4.97
2022-12-24T13:32:28.640Z,4.88
2022-12-24T13:37:31.203Z,5.28
2022-12-24T13:42:59.697Z,5.40
2022-12-24T13:48:07.958Z,4.88
2022-12-24T13:53:41.992Z,5.32
2022-12-24T13:58:48.760Z,4.82
2022-12-24T14:03:58.258Z,4.70
2022-12-24T14:09:09.434Z,5.07
2022-12-24T14:14:26.982Z,4.00
2022-12-24T14:19:40.532Z,5.78
2022-12-24T14:24:46.449Z,5.68
2022-12-24T14:29:55.289Z,5.55
2022-12-24T14:35:21.365Z,5.05
2022-12-24T14:40:29.565Z,4.40
2022-12-24T14:45:43.559Z,5.07
2022-12-24T14:51:03.234Z,4.80
2022-12-24T14:56:17.589Z,4.78
2022-12-24T15:01:26.915Z,5.05
2022-12-24T15:06:33.851Z,5.65
2022-12-24T15:11:36.748Z,5.53
2022-12-24T15:16:40.284Z,6.20
2022-12-24T15:21:44.299Z,4.88
2022-12-24T15:26:46.912Z,4.88
2022-12-24T15:31:57.203Z,5.35
2022-12-24T15:37:38.266Z,4.88
2022-12-24T15:42:44.196Z,4.90
2022-12-24T15:47:59.855Z,5.28
2022-12-24T15:53:20.721Z,6.13
2022-12-24T15:58:28.010Z,5.18
2022-12-24T16:03:31.086Z,5.03
2022-12-24T16:08:35.590Z,5.55
2022-12-24T16:13:44.064Z,5.40
2022-12-24T16:18:55.375Z,6.03
2022-12-24T16:24:21.482Z,4.40
2022-12-24T16:29:24.559Z,5.90
2022-12-24T16:34:31.956Z,5.43
2022-12-24T16:39:35.311Z,5.28
2022-12-24T16:44:38.860Z,5.53
2022-12-24T16:49:41.646Z,5.18
2022-12-24T16:54:44.429Z,4.97
2022-12-24T16:59:47.327Z,4.95
2022-12-24T17:04:50.931Z,4.18
2022-12-24T17:09:53.543Z,4.30
2022-12-24T17:14:56.525Z,3.47
2022-12-24T17:19:59.196Z,3.55
2022-12-24T17:25:01.950Z,3.58
2022-12-24T17:30:06.379Z,3.92
2022-12-24T17:35:09.535Z,4.00
2022-12-24T17:40:12.573Z,3.47
2022-12-24T17:45:15.284Z,4.63
2022-12-24T17:50:17.931Z,4.07
2022-12-24T17:55:22.869Z,4.40
2022-12-24T18:00:29.513Z,4.55
2022-12-24T18:05:35.682Z,4.45
2022-12-24T18:10:38.323Z,3.58
2022-12-24T18:15:41.435Z,3.80
2022-12-24T18:20:46.946Z,3.42
2022-12-24T18:25:49.783Z,3.50
2022-12-24T18:31:04.012Z,3.08
2022-12-24T18:36:07.234Z,3.20
2022-12-24T18:41:13.889Z,3.17
2022-12-24T18:46:23.632Z,3.13
2022-12-24T18:51:30.987Z,3.53
2022-12-24T18:56:33.922Z,3.30
2022-12-24T19:01:37.182Z,3.92
2022-12-24T19:06:40.254Z,4.55
2022-12-24T19:11:43.034Z,4.18
2022-12-24T19:16:46.077Z,4.70
2022-12-24T19:21:49.162Z,4.60
2022-12-24T19:26:52.572Z,4.55
2022-12-24T19:31:55.362Z,4.25
2022-12-24T19:36:57.974Z,4.70
2022-12-24T19:42:01.187Z,4.40
2022-12-24T19:47:03.939Z,4.32
2022-12-24T19:52:06.516Z,4.57
2022-12-24T19:57:09.131Z,3.88
2022-12-24T20:02:11.918Z,3.92
2022-12-24T20:07:15.015Z,4.20
2022-12-24T20:12:17.703Z,4.07
2022-12-24T20:17:20.453Z,3.85
2022-12-24T20:22:25.907Z,3.85
2022-12-24T20:27:28.818Z,3.72
2022-12-24T20:32:31.353Z,4.45
2022-12-24T20:37:43.716Z,4.30
2022-12-24T20:42:48.760Z,4.72
2022-12-24T20:47:52.061Z,4.10
2022-12-24T20:52:55.047Z,4.65
2022-12-24T20:57:57.654Z,4.55
2022-12-24T21:03:00.506Z,4.53
2022-12-24T21:08:03.636Z,4.90
2022-12-24T21:13:06.686Z,3.95
2022-12-24T21:18:12.298Z,4.18
2022-12-24T21:23:15.067Z,4.32
2022-12-24T21:28:17.757Z,4.00
2022-12-24T21:33:20.626Z,4.10
2022-12-24T21:38:23.173Z,3.85
2022-12-24T21:43:25.797Z,4.35
2022-12-24T21:48:46.829Z,3.83
2022-12-24T21:54:07.912Z,4.50
2022-12-24T21:59:10.503Z,4.07
2022-12-24T22:04:13.035Z,4.00
2022-12-24T22:09:34.085Z,3.75
2022-12-24T22:14:36.758Z,3.88
2022-12-24T22:19:39.393Z,3.30
2022-12-24T22:24:42.147Z,2.60
2022-12-24T22:29:44.961Z,2.05
2022-12-24T22:34:49.507Z,1.88
2022-12-24T22:39:52.092Z,1.45
2022-12-24T22:44:54.623Z,1.30
2022-12-24T22:49:57.182Z,1.50
2022-12-24T22:55:00.275Z,1.38
2022-12-24T23:00:06.107Z,1.40
2022-12-24T23:05:14.348Z,1.20
2022-12-24T23:10:17.126Z,1.20
2022-12-24T23:15:19.702Z,1.60
2022-12-24T23:20:22.219Z,1.70
2022-12-24T23:25:25.002Z,1.33
2022-12-24T23:30:27.622Z,1.60
2022-12-24T23:35:30.830Z,1.42
2022-12-24T23:40:33.438Z,1.52
2022-12-24T23:45:36.488Z,1.40
2022-12-24T23:50:39.082Z,1.60
2022-12-24T23:55:42.317Z,1.42
